sensor_id;sensor_type;location;lat;lon;timestamp;P1;durP1;ratioP1;P2;durP2;ratioP2
49422;SDS011;36998;51.974;20.150;2022-07-23T00:01:20;21.90;;;14.90;;
49422;SDS011;36998;51.974;20.150;2022-07-23T00:03:46;20.17;;;14.82;;
49422;SDS011;36998;51.974;20.150;2022-07-23T00:06:12;25.73;;;15.63;;
49422;SDS011;36998;51.974;20.150;2022-07-23T00:08:40;18.88;;;14.23;;
49422;SDS011;36998;51.974;20.150;2022-07-23T00:11:06;22.48;;;15.40;;
49422;SDS011;36998;51.974;20.150;2022-07-23T00:13:57;24.17;;;13.60;;
49422;SDS011;36998;51.974;20.150;2022-07-23T00:16:23;19.38;;;14.73;;
49422;SDS011;36998;51.974;20.150;2022-07-23T00:19:17;23.02;;;15.18;;
49422;SDS011;36998;51.974;20.150;2022-07-23T00:21:43;18.58;;;14.38;;
49422;SDS011;36998;51.974;20.150;2022-07-23T00:24:08;21.23;;;14.60;;
49422;SDS011;36998;51.974;20.150;2022-07-23T00:26:34;20.50;;;14.50;;
49422;SDS011;36998;51.974;20.150;2022-07-23T00:28:59;21.67;;;14.30;;
49422;SDS011;36998;51.974;20.150;2022-07-23T00:31:25;20.20;;;14.70;;
49422;SDS011;36998;51.974;20.150;2022-07-23T00:33:50;23.15;;;15.63;;
49422;SDS011;36998;51.974;20.150;2022-07-23T00:36:16;22.45;;;15.10;;
49422;SDS011;36998;51.974;20.150;2022-07-23T00:38:41;24.52;;;15.32;;
49422;SDS011;36998;51.974;20.150;2022-07-23T00:41:07;21.63;;;15.55;;
49422;SDS011;36998;51.974;20.150;2022-07-23T00:43:32;19.70;;;15.23;;
49422;SDS011;36998;51.974;20.150;2022-07-23T00:45:58;20.00;;;14.85;;
49422;SDS011;36998;51.974;20.150;2022-07-23T00:48:23;18.83;;;14.02;;
49422;SDS011;36998;51.974;20.150;2022-07-23T00:50:49;22.15;;;14.85;;
49422;SDS011;36998;51.974;20.150;2022-07-23T00:53:14;18.83;;;14.07;;
49422;SDS011;36998;51.974;20.150;2022-07-23T00:55:40;25.30;;;14.80;;
49422;SDS011;36998;51.974;20.150;2022-07-23T00:58:06;16.58;;;13.90;;
49422;SDS011;36998;51.974;20.150;2022-07-23T01:00:32;29.23;;;15.98;;
49422;SDS011;36998;51.974;20.150;2022-07-23T01:02:58;19.35;;;14.43;;
49422;SDS011;36998;51.974;20.150;2022-07-23T01:05:23;19.08;;;15.35;;
49422;SDS011;36998;51.974;20.150;2022-07-23T01:07:50;17.35;;;14.68;;
49422;SDS011;36998;51.974;20.150;2022-07-23T01:10:17;20.45;;;15.13;;
49422;SDS011;36998;51.974;20.150;2022-07-23T01:15:27;24.33;;;16.03;;
49422;SDS011;36998;51.974;20.150;2022-07-23T01:17:53;21.17;;;15.43;;
49422;SDS011;36998;51.974;20.150;2022-07-23T01:20:19;26.70;;;17.15;;
49422;SDS011;36998;51.974;20.150;2022-07-23T01:22:45;20.70;;;15.95;;
49422;SDS011;36998;51.974;20.150;2022-07-23T01:25:12;23.00;;;16.17;;
49422;SDS011;36998;51.974;20.150;2022-07-23T01:27:41;25.03;;;16.27;;
49422;SDS011;36998;51.974;20.150;2022-07-23T01:30:07;24.98;;;16.63;;
49422;SDS011;36998;51.974;20.150;2022-07-23T01:32:33;25.88;;;16.15;;
49422;SDS011;36998;51.974;20.150;2022-07-23T01:34:58;27.88;;;16.25;;
49422;SDS011;36998;51.974;20.150;2022-07-23T01:37:24;21.48;;;15.75;;
49422;SDS011;36998;51.974;20.150;2022-07-23T01:39:49;23.15;;;16.85;;
49422;SDS011;36998;51.974;20.150;2022-07-23T01:42:15;27.40;;;17.40;;
49422;SDS011;36998;51.974;20.150;2022-07-23T01:44:41;23.30;;;17.45;;
49422;SDS011;36998;51.974;20.150;2022-07-23T01:47:11;24.55;;;16.50;;
49422;SDS011;36998;51.974;20.150;2022-07-23T01:49:37;24.73;;;18.15;;
49422;SDS011;36998;51.974;20.150;2022-07-23T01:52:21;30.33;;;18.20;;
49422;SDS011;36998;51.974;20.150;2022-07-23T01:54:49;24.10;;;17.30;;
49422;SDS011;36998;51.974;20.150;2022-07-23T01:57:15;23.75;;;17.25;;
49422;SDS011;36998;51.974;20.150;2022-07-23T01:59:41;23.35;;;18.45;;
49422;SDS011;36998;51.974;20.150;2022-07-23T02:02:08;23.08;;;17.58;;
49422;SDS011;36998;51.974;20.150;2022-07-23T02:04:33;28.55;;;18.77;;
49422;SDS011;36998;51.974;20.150;2022-07-23T02:07:03;31.58;;;18.55;;
49422;SDS011;36998;51.974;20.150;2022-07-23T02:09:29;26.10;;;17.80;;
49422;SDS011;36998;51.974;20.150;2022-07-23T02:11:55;20.92;;;17.02;;
49422;SDS011;36998;51.974;20.150;2022-07-23T02:14:20;25.75;;;18.42;;
49422;SDS011;36998;51.974;20.150;2022-07-23T02:16:46;26.92;;;18.38;;
49422;SDS011;36998;51.974;20.150;2022-07-23T02:19:11;25.67;;;18.20;;
49422;SDS011;36998;51.974;20.150;2022-07-23T02:21:37;26.63;;;18.92;;
49422;SDS011;36998;51.974;20.150;2022-07-23T02:24:02;26.05;;;19.90;;
49422;SDS011;36998;51.974;20.150;2022-07-23T02:26:29;30.55;;;20.45;;
49422;SDS011;36998;51.974;20.150;2022-07-23T02:28:55;25.15;;;19.55;;
49422;SDS011;36998;51.974;20.150;2022-07-23T02:31:21;26.50;;;18.70;;
49422;SDS011;36998;51.974;20.150;2022-07-23T02:33:46;25.98;;;19.02;;
49422;SDS011;36998;51.974;20.150;2022-07-23T02:36:13;29.20;;;20.70;;
49422;SDS011;36998;51.974;20.150;2022-07-23T02:38:40;26.38;;;19.38;;
49422;SDS011;36998;51.974;20.150;2022-07-23T02:41:05;29.02;;;19.98;;
49422;SDS011;36998;51.974;20.150;2022-07-23T02:43:31;26.67;;;19.35;;
49422;SDS011;36998;51.974;20.150;2022-07-23T02:45:56;29.23;;;19.50;;
49422;SDS011;36998;51.974;20.150;2022-07-23T02:48:23;30.00;;;19.83;;
49422;SDS011;36998;51.974;20.150;2022-07-23T02:50:48;28.95;;;19.65;;
49422;SDS011;36998;51.974;20.150;2022-07-23T02:53:25;31.73;;;20.05;;
49422;SDS011;36998;51.974;20.150;2022-07-23T02:56:00;30.10;;;20.17;;
49422;SDS011;36998;51.974;20.150;2022-07-23T02:58:25;31.80;;;19.08;;
49422;SDS011;36998;51.974;20.150;2022-07-23T03:00:52;29.58;;;20.45;;
49422;SDS011;36998;51.974;20.150;2022-07-23T03:03:18;31.30;;;19.73;;
49422;SDS011;36998;51.974;20.150;2022-07-23T03:05:43;30.67;;;20.95;;
49422;SDS011;36998;51.974;20.150;2022-07-23T03:08:09;31.40;;;19.50;;
49422;SDS011;36998;51.974;20.150;2022-07-23T03:10:37;29.48;;;20.95;;
49422;SDS011;36998;51.974;20.150;2022-07-23T03:13:03;30.30;;;20.20;;
49422;SDS011;36998;51.974;20.150;2022-07-23T03:15:29;31.67;;;20.98;;
49422;SDS011;36998;51.974;20.150;2022-07-23T03:17:54;26.17;;;19.48;;
49422;SDS011;36998;51.974;20.150;2022-07-23T03:20:20;27.02;;;19.75;;
49422;SDS011;36998;51.974;20.150;2022-07-23T03:22:46;29.88;;;19.58;;
49422;SDS011;36998;51.974;20.150;2022-07-23T03:25:11;34.85;;;20.67;;
49422;SDS011;36998;51.974;20.150;2022-07-23T03:27:37;24.83;;;19.42;;
49422;SDS011;36998;51.974;20.150;2022-07-23T03:30:03;28.55;;;20.35;;
49422;SDS011;36998;51.974;20.150;2022-07-23T03:32:30;28.25;;;20.00;;
49422;SDS011;36998;51.974;20.150;2022-07-23T03:34:56;29.10;;;20.00;;
49422;SDS011;36998;51.974;20.150;2022-07-23T03:37:22;23.98;;;19.30;;
49422;SDS011;36998;51.974;20.150;2022-07-23T03:39:48;31.92;;;20.05;;
49422;SDS011;36998;51.974;20.150;2022-07-23T03:42:13;27.25;;;19.52;;
49422;SDS011;36998;51.974;20.150;2022-07-23T03:44:39;27.30;;;18.45;;
49422;SDS011;36998;51.974;20.150;2022-07-23T03:47:05;27.35;;;18.98;;
49422;SDS011;36998;51.974;20.150;2022-07-23T03:49:31;28.17;;;18.52;;
49422;SDS011;36998;51.974;20.150;2022-07-23T03:51:58;28.60;;;19.77;;
49422;SDS011;36998;51.974;20.150;2022-07-23T03:54:23;26.83;;;19.95;;
49422;SDS011;36998;51.974;20.150;2022-07-23T03:56:49;28.35;;;19.67;;
49422;SDS011;36998;51.974;20.150;2022-07-23T03:59:15;27.70;;;18.30;;
49422;SDS011;36998;51.974;20.150;2022-07-23T04:01:40;26.80;;;18.83;;
49422;SDS011;36998;51.974;20.150;2022-07-23T04:04:06;25.48;;;16.98;;
49422;SDS011;36998;51.974;20.150;2022-07-23T04:06:34;24.17;;;18.05;;
49422;SDS011;36998;51.974;20.150;2022-07-23T04:09:00;26.30;;;18.10;;
49422;SDS011;36998;51.974;20.150;2022-07-23T04:11:28;25.35;;;18.45;;
49422;SDS011;36998;51.974;20.150;2022-07-23T04:13:53;23.75;;;18.77;;
49422;SDS011;36998;51.974;20.150;2022-07-23T04:16:20;29.83;;;18.92;;
49422;SDS011;36998;51.974;20.150;2022-07-23T04:18:46;29.92;;;18.42;;
49422;SDS011;36998;51.974;20.150;2022-07-23T04:21:15;26.55;;;18.27;;
49422;SDS011;36998;51.974;20.150;2022-07-23T04:23:41;27.23;;;17.83;;
49422;SDS011;36998;51.974;20.150;2022-07-23T04:26:06;29.33;;;18.02;;
49422;SDS011;36998;51.974;20.150;2022-07-23T04:28:32;24.75;;;18.08;;
49422;SDS011;36998;51.974;20.150;2022-07-23T04:30:57;24.65;;;18.27;;
49422;SDS011;36998;51.974;20.150;2022-07-23T04:33:23;27.10;;;18.38;;
49422;SDS011;36998;51.974;20.150;2022-07-23T04:35:52;28.98;;;18.70;;
49422;SDS011;36998;51.974;20.150;2022-07-23T04:38:19;32.25;;;19.27;;
49422;SDS011;36998;51.974;20.150;2022-07-23T04:40:46;26.98;;;18.70;;
49422;SDS011;36998;51.974;20.150;2022-07-23T04:43:11;26.77;;;18.25;;
49422;SDS011;36998;51.974;20.150;2022-07-23T04:45:44;30.92;;;18.38;;
49422;SDS011;36998;51.974;20.150;2022-07-23T04:48:10;26.05;;;18.25;;
49422;SDS011;36998;51.974;20.150;2022-07-23T04:50:35;32.05;;;18.92;;
49422;SDS011;36998;51.974;20.150;2022-07-23T04:53:03;26.75;;;18.83;;
49422;SDS011;36998;51.974;20.150;2022-07-23T04:55:28;24.15;;;17.95;;
49422;SDS011;36998;51.974;20.150;2022-07-23T04:57:54;26.08;;;18.65;;
49422;SDS011;36998;51.974;20.150;2022-07-23T05:00:19;26.17;;;17.95;;
49422;SDS011;36998;51.974;20.150;2022-07-23T05:02:45;27.63;;;17.27;;
49422;SDS011;36998;51.974;20.150;2022-07-23T05:05:11;23.02;;;17.25;;
49422;SDS011;36998;51.974;20.150;2022-07-23T05:07:36;26.77;;;18.40;;
49422;SDS011;36998;51.974;20.150;2022-07-23T05:10:02;27.35;;;17.88;;
49422;SDS011;36998;51.974;20.150;2022-07-23T05:12:29;25.58;;;16.67;;
49422;SDS011;36998;51.974;20.150;2022-07-23T05:14:55;26.88;;;18.15;;
49422;SDS011;36998;51.974;20.150;2022-07-23T05:17:20;20.83;;;17.42;;
49422;SDS011;36998;51.974;20.150;2022-07-23T05:19:46;23.00;;;17.42;;
49422;SDS011;36998;51.974;20.150;2022-07-23T05:22:12;26.85;;;17.50;;
49422;SDS011;36998;51.974;20.150;2022-07-23T05:24:37;20.60;;;16.67;;
49422;SDS011;36998;51.974;20.150;2022-07-23T05:27:04;28.98;;;19.73;;
49422;SDS011;36998;51.974;20.150;2022-07-23T05:29:29;21.83;;;15.68;;
49422;SDS011;36998;51.974;20.150;2022-07-23T05:31:55;23.88;;;16.75;;
49422;SDS011;36998;51.974;20.150;2022-07-23T05:34:21;22.58;;;16.33;;
49422;SDS011;36998;51.974;20.150;2022-07-23T05:36:47;21.52;;;16.13;;
49422;SDS011;36998;51.974;20.150;2022-07-23T05:39:13;21.77;;;15.82;;
49422;SDS011;36998;51.974;20.150;2022-07-23T05:41:39;23.33;;;15.43;;
49422;SDS011;36998;51.974;20.150;2022-07-23T05:44:05;23.27;;;15.52;;
49422;SDS011;36998;51.974;20.150;2022-07-23T05:46:32;22.73;;;15.30;;
49422;SDS011;36998;51.974;20.150;2022-07-23T05:49:04;23.15;;;15.23;;
49422;SDS011;36998;51.974;20.150;2022-07-23T05:51:49;24.80;;;15.45;;
49422;SDS011;36998;51.974;20.150;2022-07-23T05:54:23;25.00;;;16.33;;
49422;SDS011;36998;51.974;20.150;2022-07-23T05:56:50;21.10;;;14.10;;
49422;SDS011;36998;51.974;20.150;2022-07-23T05:59:17;21.70;;;15.25;;
49422;SDS011;36998;51.974;20.150;2022-07-23T06:01:43;19.55;;;14.57;;
49422;SDS011;36998;51.974;20.150;2022-07-23T06:04:10;17.77;;;13.40;;
49422;SDS011;36998;51.974;20.150;2022-07-23T06:06:39;17.70;;;13.27;;
49422;SDS011;36998;51.974;20.150;2022-07-23T06:09:06;20.70;;;13.82;;
49422;SDS011;36998;51.974;20.150;2022-07-23T06:11:41;17.17;;;13.80;;
49422;SDS011;36998;51.974;20.150;2022-07-23T06:14:07;16.38;;;12.70;;
49422;SDS011;36998;51.974;20.150;2022-07-23T06:16:54;87.03;;;61.53;;
49422;SDS011;36998;51.974;20.150;2022-07-23T06:19:20;23.48;;;15.40;;
49422;SDS011;36998;51.974;20.150;2022-07-23T06:21:46;14.93;;;11.68;;
49422;SDS011;36998;51.974;20.150;2022-07-23T06:24:11;21.35;;;12.82;;
49422;SDS011;36998;51.974;20.150;2022-07-23T06:26:38;14.40;;;11.40;;
49422;SDS011;36998;51.974;20.150;2022-07-23T06:29:03;16.40;;;11.13;;
49422;SDS011;36998;51.974;20.150;2022-07-23T06:31:29;16.40;;;11.40;;
49422;SDS011;36998;51.974;20.150;2022-07-23T06:33:54;18.92;;;12.23;;
49422;SDS011;36998;51.974;20.150;2022-07-23T06:36:49;18.63;;;11.70;;
49422;SDS011;36998;51.974;20.150;2022-07-23T06:39:14;15.98;;;10.30;;
49422;SDS011;36998;51.974;20.150;2022-07-23T06:41:43;16.90;;;11.00;;
49422;SDS011;36998;51.974;20.150;2022-07-23T06:44:09;14.65;;;9.48;;
49422;SDS011;36998;51.974;20.150;2022-07-23T06:46:34;13.63;;;11.88;;
49422;SDS011;36998;51.974;20.150;2022-07-23T06:49:00;17.80;;;12.43;;
49422;SDS011;36998;51.974;20.150;2022-07-23T06:51:28;16.40;;;11.82;;
49422;SDS011;36998;51.974;20.150;2022-07-23T06:53:53;13.77;;;11.50;;
49422;SDS011;36998;51.974;20.150;2022-07-23T06:56:19;14.60;;;11.60;;
49422;SDS011;36998;51.974;20.150;2022-07-23T06:58:45;11.65;;;9.90;;
49422;SDS011;36998;51.974;20.150;2022-07-23T07:01:10;14.68;;;10.43;;
49422;SDS011;36998;51.974;20.150;2022-07-23T07:03:36;11.18;;;9.35;;
49422;SDS011;36998;51.974;20.150;2022-07-23T07:06:01;9.55;;;8.38;;
49422;SDS011;36998;51.974;20.150;2022-07-23T07:08:27;11.82;;;9.70;;
49422;SDS011;36998;51.974;20.150;2022-07-23T07:10:53;15.30;;;9.52;;
49422;SDS011;36998;51.974;20.150;2022-07-23T07:13:18;16.45;;;8.75;;
49422;SDS011;36998;51.974;20.150;2022-07-23T07:15:44;12.10;;;9.40;;
49422;SDS011;36998;51.974;20.150;2022-07-23T07:18:09;13.13;;;8.80;;
49422;SDS011;36998;51.974;20.150;2022-07-23T07:20:35;10.88;;;8.60;;
49422;SDS011;36998;51.974;20.150;2022-07-23T07:23:00;8.65;;;7.63;;
49422;SDS011;36998;51.974;20.150;2022-07-23T07:25:26;13.00;;;8.68;;
49422;SDS011;36998;51.974;20.150;2022-07-23T07:27:53;10.68;;;8.07;;
49422;SDS011;36998;51.974;20.150;2022-07-23T07:30:19;10.43;;;7.90;;
49422;SDS011;36998;51.974;20.150;2022-07-23T07:32:45;11.05;;;7.85;;
49422;SDS011;36998;51.974;20.150;2022-07-23T07:35:10;7.78;;;6.57;;
49422;SDS011;36998;51.974;20.150;2022-07-23T07:37:36;8.27;;;6.65;;
49422;SDS011;36998;51.974;20.150;2022-07-23T07:40:02;8.98;;;7.65;;
49422;SDS011;36998;51.974;20.150;2022-07-23T07:42:27;12.60;;;7.75;;
49422;SDS011;36998;51.974;20.150;2022-07-23T07:44:53;10.73;;;7.50;;
49422;SDS011;36998;51.974;20.150;2022-07-23T07:47:18;10.27;;;7.93;;
49422;SDS011;36998;51.974;20.150;2022-07-23T07:49:44;12.18;;;7.35;;
49422;SDS011;36998;51.974;20.150;2022-07-23T07:52:10;10.27;;;7.60;;
49422;SDS011;36998;51.974;20.150;2022-07-23T07:54:53;10.73;;;8.10;;
49422;SDS011;36998;51.974;20.150;2022-07-23T07:57:18;14.18;;;7.43;;
49422;SDS011;36998;51.974;20.150;2022-07-23T07:59:44;14.45;;;8.13;;
49422;SDS011;36998;51.974;20.150;2022-07-23T08:02:09;9.70;;;7.53;;
49422;SDS011;36998;51.974;20.150;2022-07-23T08:04:35;11.10;;;7.82;;
49422;SDS011;36998;51.974;20.150;2022-07-23T08:07:00;12.75;;;6.85;;
49422;SDS011;36998;51.974;20.150;2022-07-23T08:09:26;11.20;;;7.88;;
49422;SDS011;36998;51.974;20.150;2022-07-23T08:11:52;11.48;;;7.75;;
49422;SDS011;36998;51.974;20.150;2022-07-23T08:14:17;11.73;;;8.77;;
49422;SDS011;36998;51.974;20.150;2022-07-23T08:16:44;10.18;;;8.23;;
49422;SDS011;36998;51.974;20.150;2022-07-23T08:19:09;13.50;;;8.10;;
49422;SDS011;36998;51.974;20.150;2022-07-23T08:21:34;13.48;;;7.68;;
49422;SDS011;36998;51.974;20.150;2022-07-23T08:24:00;11.10;;;8.80;;
49422;SDS011;36998;51.974;20.150;2022-07-23T08:26:25;10.48;;;7.22;;
49422;SDS011;36998;51.974;20.150;2022-07-23T08:28:51;13.80;;;8.43;;
49422;SDS011;36998;51.974;20.150;2022-07-23T08:31:16;12.82;;;7.50;;
49422;SDS011;36998;51.974;20.150;2022-07-23T08:33:42;9.85;;;7.78;;
49422;SDS011;36998;51.974;20.150;2022-07-23T08:36:08;12.52;;;7.63;;
49422;SDS011;36998;51.974;20.150;2022-07-23T08:38:34;9.90;;;7.65;;
49422;SDS011;36998;51.974;20.150;2022-07-23T08:41:03;9.73;;;7.35;;
49422;SDS011;36998;51.974;20.150;2022-07-23T08:43:31;10.68;;;7.38;;
49422;SDS011;36998;51.974;20.150;2022-07-23T08:45:58;10.75;;;7.72;;
49422;SDS011;36998;51.974;20.150;2022-07-23T08:48:26;9.88;;;7.45;;
49422;SDS011;36998;51.974;20.150;2022-07-23T08:50:57;7.90;;;7.10;;
49422;SDS011;36998;51.974;20.150;2022-07-23T08:53:25;8.83;;;6.93;;
49422;SDS011;36998;51.974;20.150;2022-07-23T08:55:52;9.40;;;7.18;;
49422;SDS011;36998;51.974;20.150;2022-07-23T08:58:19;11.88;;;6.70;;
49422;SDS011;36998;51.974;20.150;2022-07-23T09:00:47;8.50;;;7.32;;
49422;SDS011;36998;51.974;20.150;2022-07-23T09:03:17;9.10;;;7.10;;
49422;SDS011;36998;51.974;20.150;2022-07-23T09:05:45;9.93;;;6.90;;
49422;SDS011;36998;51.974;20.150;2022-07-23T09:10:53;8.32;;;7.40;;
49422;SDS011;36998;51.974;20.150;2022-07-23T09:13:31;8.85;;;6.30;;
49422;SDS011;36998;51.974;20.150;2022-07-23T09:16:03;10.07;;;6.47;;
49422;SDS011;36998;51.974;20.150;2022-07-23T09:18:35;7.20;;;6.15;;
49422;SDS011;36998;51.974;20.150;2022-07-23T09:23:36;11.95;;;5.68;;
49422;SDS011;36998;51.974;20.150;2022-07-23T09:26:07;6.55;;;5.78;;
49422;SDS011;36998;51.974;20.150;2022-07-23T09:28:55;8.88;;;6.97;;
49422;SDS011;36998;51.974;20.150;2022-07-23T09:31:32;8.13;;;6.18;;
49422;SDS011;36998;51.974;20.150;2022-07-23T09:34:13;7.65;;;6.85;;
49422;SDS011;36998;51.974;20.150;2022-07-23T09:36:57;7.35;;;6.53;;
49422;SDS011;36998;51.974;20.150;2022-07-23T09:39:42;6.40;;;5.47;;
49422;SDS011;36998;51.974;20.150;2022-07-23T09:42:15;6.95;;;5.97;;
49422;SDS011;36998;51.974;20.150;2022-07-23T09:44:43;10.55;;;5.88;;
49422;SDS011;36998;51.974;20.150;2022-07-23T09:47:10;7.70;;;5.88;;
49422;SDS011;36998;51.974;20.150;2022-07-23T09:52:45;11.23;;;5.95;;
49422;SDS011;36998;51.974;20.150;2022-07-23T09:55:15;7.00;;;5.85;;
49422;SDS011;36998;51.974;20.150;2022-07-23T09:57:42;6.80;;;5.68;;
49422;SDS011;36998;51.974;20.150;2022-07-23T10:02:38;6.38;;;5.55;;
49422;SDS011;36998;51.974;20.150;2022-07-23T10:05:23;10.38;;;7.00;;
49422;SDS011;36998;51.974;20.150;2022-07-23T10:08:11;7.35;;;6.18;;
49422;SDS011;36998;51.974;20.150;2022-07-23T10:11:12;7.07;;;6.38;;
49422;SDS011;36998;51.974;20.150;2022-07-23T10:13:54;9.00;;;6.10;;
49422;SDS011;36998;51.974;20.150;2022-07-23T10:16:50;10.73;;;6.78;;
49422;SDS011;36998;51.974;20.150;2022-07-23T10:19:16;8.90;;;6.25;;
49422;SDS011;36998;51.974;20.150;2022-07-23T10:21:46;8.63;;;6.95;;
49422;SDS011;36998;51.974;20.150;2022-07-23T10:24:30;11.07;;;6.68;;
49422;SDS011;36998;51.974;20.150;2022-07-23T10:36:30;9.68;;;6.47;;
49422;SDS011;36998;51.974;20.150;2022-07-23T10:38:54;9.63;;;7.28;;
49422;SDS011;36998;51.974;20.150;2022-07-23T10:41:38;8.00;;;7.10;;
49422;SDS011;36998;51.974;20.150;2022-07-23T10:44:12;7.85;;;6.30;;
49422;SDS011;36998;51.974;20.150;2022-07-23T10:46:58;9.50;;;6.50;;
49422;SDS011;36998;51.974;20.150;2022-07-23T10:49:29;9.20;;;6.80;;
49422;SDS011;36998;51.974;20.150;2022-07-23T10:54:43;13.70;;;6.85;;
49422;SDS011;36998;51.974;20.150;2022-07-23T10:57:14;11.50;;;6.68;;
49422;SDS011;36998;51.974;20.150;2022-07-23T11:02:34;8.13;;;6.25;;
49422;SDS011;36998;51.974;20.150;2022-07-23T11:05:03;9.77;;;6.53;;
49422;SDS011;36998;51.974;20.150;2022-07-23T11:07:30;14.60;;;12.77;;
49422;SDS011;36998;51.974;20.150;2022-07-23T11:09:56;7.80;;;6.07;;
49422;SDS011;36998;51.974;20.150;2022-07-23T11:15:06;6.78;;;6.05;;
49422;SDS011;36998;51.974;20.150;2022-07-23T11:17:38;8.45;;;6.00;;
49422;SDS011;36998;51.974;20.150;2022-07-23T11:20:25;6.88;;;6.13;;
49422;SDS011;36998;51.974;20.150;2022-07-23T11:22:57;8.65;;;6.30;;
49422;SDS011;36998;51.974;20.150;2022-07-23T11:28:07;8.98;;;6.18;;
49422;SDS011;36998;51.974;20.150;2022-07-23T11:30:39;7.05;;;6.22;;
49422;SDS011;36998;51.974;20.150;2022-07-23T11:35:32;8.90;;;6.68;;
49422;SDS011;36998;51.974;20.150;2022-07-23T11:38:10;9.63;;;6.03;;
49422;SDS011;36998;51.974;20.150;2022-07-23T11:40:40;6.57;;;5.97;;
49422;SDS011;36998;51.974;20.150;2022-07-23T11:43:06;8.13;;;5.45;;
49422;SDS011;36998;51.974;20.150;2022-07-23T11:45:35;8.52;;;5.80;;
49422;SDS011;36998;51.974;20.150;2022-07-23T11:48:03;9.50;;;6.05;;
49422;SDS011;36998;51.974;20.150;2022-07-23T11:50:30;6.70;;;5.43;;
49422;SDS011;36998;51.974;20.150;2022-07-23T11:52:56;7.60;;;6.10;;
49422;SDS011;36998;51.974;20.150;2022-07-23T11:55:22;7.05;;;5.72;;
49422;SDS011;36998;51.974;20.150;2022-07-23T11:57:48;7.28;;;5.68;;
49422;SDS011;36998;51.974;20.150;2022-07-23T12:02:48;8.32;;;5.40;;
49422;SDS011;36998;51.974;20.150;2022-07-23T12:05:19;7.97;;;5.78;;
49422;SDS011;36998;51.974;20.150;2022-07-23T12:07:48;10.43;;;5.70;;
49422;SDS011;36998;51.974;20.150;2022-07-23T12:12:43;11.93;;;6.25;;
49422;SDS011;36998;51.974;20.150;2022-07-23T12:15:12;6.25;;;5.45;;
49422;SDS011;36998;51.974;20.150;2022-07-23T12:17:39;6.40;;;5.63;;
49422;SDS011;36998;51.974;20.150;2022-07-23T12:20:07;8.45;;;5.97;;
49422;SDS011;36998;51.974;20.150;2022-07-23T12:22:36;8.95;;;6.22;;
49422;SDS011;36998;51.974;20.150;2022-07-23T12:25:09;8.65;;;5.63;;
49422;SDS011;36998;51.974;20.150;2022-07-23T12:27:40;9.55;;;5.95;;
49422;SDS011;36998;51.974;20.150;2022-07-23T12:30:17;13.70;;;6.03;;
49422;SDS011;36998;51.974;20.150;2022-07-23T12:32:48;7.20;;;5.50;;
49422;SDS011;36998;51.974;20.150;2022-07-23T12:35:15;7.03;;;5.28;;
49422;SDS011;36998;51.974;20.150;2022-07-23T12:37:41;7.10;;;5.60;;
49422;SDS011;36998;51.974;20.150;2022-07-23T12:40:23;6.80;;;5.18;;
49422;SDS011;36998;51.974;20.150;2022-07-23T12:43:01;6.05;;;5.20;;
49422;SDS011;36998;51.974;20.150;2022-07-23T12:45:41;7.30;;;5.18;;
49422;SDS011;36998;51.974;20.150;2022-07-23T12:48:31;7.70;;;4.90;;
49422;SDS011;36998;51.974;20.150;2022-07-23T12:51:02;7.97;;;5.28;;
49422;SDS011;36998;51.974;20.150;2022-07-23T12:56:17;6.43;;;4.90;;
49422;SDS011;36998;51.974;20.150;2022-07-23T12:58:45;8.27;;;5.88;;
49422;SDS011;36998;51.974;20.150;2022-07-23T13:04:07;8.18;;;5.40;;
49422;SDS011;36998;51.974;20.150;2022-07-23T13:06:44;13.25;;;5.43;;
49422;SDS011;36998;51.974;20.150;2022-07-23T13:09:17;9.60;;;5.28;;
49422;SDS011;36998;51.974;20.150;2022-07-23T13:11:45;6.72;;;5.47;;
49422;SDS011;36998;51.974;20.150;2022-07-23T13:14:11;11.45;;;6.07;;
49422;SDS011;36998;51.974;20.150;2022-07-23T13:16:38;7.07;;;5.80;;
49422;SDS011;36998;51.974;20.150;2022-07-23T13:19:05;8.48;;;6.10;;
49422;SDS011;36998;51.974;20.150;2022-07-23T13:21:31;8.15;;;5.90;;
49422;SDS011;36998;51.974;20.150;2022-07-23T13:23:57;6.72;;;6.03;;
49422;SDS011;36998;51.974;20.150;2022-07-23T13:26:23;8.77;;;6.20;;
49422;SDS011;36998;51.974;20.150;2022-07-23T13:28:49;12.20;;;7.00;;
49422;SDS011;36998;51.974;20.150;2022-07-23T13:31:16;11.80;;;6.88;;
49422;SDS011;36998;51.974;20.150;2022-07-23T13:33:41;11.50;;;6.38;;
49422;SDS011;36998;51.974;20.150;2022-07-23T13:36:07;25.10;;;5.05;;
49422;SDS011;36998;51.974;20.150;2022-07-23T13:38:33;17.65;;;4.40;;
49422;SDS011;36998;51.974;20.150;2022-07-23T13:40:58;11.23;;;3.20;;
49422;SDS011;36998;51.974;20.150;2022-07-23T13:43:24;24.55;;;4.18;;
49422;SDS011;36998;51.974;20.150;2022-07-23T13:45:50;22.13;;;4.20;;
49422;SDS011;36998;51.974;20.150;2022-07-23T13:48:16;6.93;;;3.90;;
49422;SDS011;36998;51.974;20.150;2022-07-23T13:50:42;14.18;;;4.93;;
49422;SDS011;36998;51.974;20.150;2022-07-23T13:53:10;7.22;;;4.22;;
49422;SDS011;36998;51.974;20.150;2022-07-23T13:55:37;10.70;;;5.43;;
49422;SDS011;36998;51.974;20.150;2022-07-23T13:58:04;14.73;;;5.38;;
49422;SDS011;36998;51.974;20.150;2022-07-23T14:00:30;15.10;;;6.30;;
49422;SDS011;36998;51.974;20.150;2022-07-23T14:02:57;13.23;;;7.05;;
49422;SDS011;36998;51.974;20.150;2022-07-23T14:05:23;18.95;;;9.60;;
49422;SDS011;36998;51.974;20.150;2022-07-23T14:07:49;16.05;;;8.63;;
49422;SDS011;36998;51.974;20.150;2022-07-23T14:10:34;12.65;;;9.77;;
49422;SDS011;36998;51.974;20.150;2022-07-23T14:13:00;16.35;;;9.85;;
49422;SDS011;36998;51.974;20.150;2022-07-23T14:15:27;14.80;;;9.50;;
49422;SDS011;36998;51.974;20.150;2022-07-23T14:17:54;15.43;;;10.05;;
49422;SDS011;36998;51.974;20.150;2022-07-23T14:20:20;20.35;;;10.20;;
49422;SDS011;36998;51.974;20.150;2022-07-23T14:22:46;17.55;;;10.18;;
49422;SDS011;36998;51.974;20.150;2022-07-23T14:25:13;18.95;;;11.32;;
49422;SDS011;36998;51.974;20.150;2022-07-23T14:27:39;17.88;;;10.50;;
49422;SDS011;36998;51.974;20.150;2022-07-23T14:30:14;17.67;;;10.27;;
49422;SDS011;36998;51.974;20.150;2022-07-23T14:32:43;16.33;;;11.60;;
49422;SDS011;36998;51.974;20.150;2022-07-23T14:35:09;23.92;;;12.95;;
49422;SDS011;36998;51.974;20.150;2022-07-23T14:37:35;21.35;;;14.80;;
49422;SDS011;36998;51.974;20.150;2022-07-23T14:40:00;22.80;;;14.50;;
49422;SDS011;36998;51.974;20.150;2022-07-23T14:42:27;47.95;;;13.95;;
49422;SDS011;36998;51.974;20.150;2022-07-23T14:44:53;30.38;;;14.23;;
49422;SDS011;36998;51.974;20.150;2022-07-23T14:47:19;26.52;;;14.55;;
49422;SDS011;36998;51.974;20.150;2022-07-23T14:49:45;19.40;;;12.93;;
49422;SDS011;36998;51.974;20.150;2022-07-23T14:52:10;23.05;;;12.98;;
49422;SDS011;36998;51.974;20.150;2022-07-23T14:54:36;32.33;;;21.50;;
49422;SDS011;36998;51.974;20.150;2022-07-23T14:57:05;21.55;;;14.23;;
49422;SDS011;36998;51.974;20.150;2022-07-23T14:59:33;19.45;;;12.80;;
49422;SDS011;36998;51.974;20.150;2022-07-23T15:01:58;16.00;;;10.90;;
49422;SDS011;36998;51.974;20.150;2022-07-23T15:04:24;18.27;;;12.15;;
49422;SDS011;36998;51.974;20.150;2022-07-23T15:06:50;18.42;;;13.00;;
49422;SDS011;36998;51.974;20.150;2022-07-23T15:09:17;16.58;;;12.93;;
49422;SDS011;36998;51.974;20.150;2022-07-23T15:11:43;18.17;;;13.32;;